sensor_id;sensor_type;location;lat;lon;timestamp;pressure;altitude;pressure_sealevel;temperature;humidity
977;BME280;477;51.436;7.292;2023-11-21T08:26:27;59986.63;;;-146.42;100.00
977;BME280;477;51.436;7.292;2023-11-21T08:28:55;59986.63;;;-146.42;100.00
977;BME280;477;51.436;7.292;2023-11-21T08:31:25;59986.63;;;-146.42;100.00
977;BME280;477;51.436;7.292;2023-11-21T08:33:55;59986.63;;;-146.42;100.00
977;BME280;477;51.436;7.292;2023-11-21T08:36:25;59986.63;;;-146.42;100.00
977;BME280;477;51.436;7.292;2023-11-21T08:38:54;59986.63;;;-146.42;100.00
977;BME280;477;51.436;7.292;2023-11-21T08:41:22;59986.63;;;-146.42;100.00
977;BME280;477;51.436;7.292;2023-11-21T08:43:52;59986.63;;;-146.42;100.00
977;BME280;477;51.436;7.292;2023-11-21T08:46:22;59986.63;;;-146.42;100.00
977;BME280;477;51.436;7.292;2023-11-21T08:48:53;59986.63;;;-146.42;100.00
977;BME280;477;51.436;7.292;2023-11-21T08:51:23;59986.63;;;-146.42;100.00
977;BME280;477;51.436;7.292;2023-11-21T08:53:52;59986.63;;;-146.42;100.00
977;BME280;477;51.436;7.292;2023-11-21T08:56:21;59986.63;;;-146.42;100.00
977;BME280;477;51.436;7.292;2023-11-21T08:58:49;59986.63;;;-146.42;100.00
977;BME280;477;51.436;7.292;2023-11-21T09:01:20;59986.63;;;-146.42;100.00
977;BME280;477;51.436;7.292;2023-11-21T09:03:49;59986.63;;;-146.42;100.00
977;BME280;477;51.436;7.292;2023-11-21T09:06:18;59986.63;;;-146.42;100.00
977;BME280;477;51.436;7.292;2023-11-21T09:08:49;59986.63;;;-146.42;100.00
977;BME280;477;51.436;7.292;2023-11-21T09:11:18;59986.63;;;-146.42;100.00
977;BME280;477;51.436;7.292;2023-11-21T09:13:47;59986.63;;;-146.42;100.00
977;BME280;477;51.436;7.292;2023-11-21T09:16:15;59986.63;;;-146.42;100.00
977;BME280;477;51.436;7.292;2023-11-21T09:18:46;59986.63;;;-146.42;100.00
977;BME280;477;51.436;7.292;2023-11-21T09:21:15;59986.63;;;-146.42;100.00
977;BME280;477;51.436;7.292;2023-11-21T09:23:46;59986.63;;;-146.42;100.00
977;BME280;477;51.436;7.292;2023-11-21T09:26:15;59986.63;;;-146.42;100.00
977;BME280;477;51.436;7.292;2023-11-21T09:28:45;59986.63;;;-146.42;100.00
977;BME280;477;51.436;7.292;2023-11-21T09:31:15;59986.63;;;-146.42;100.00
977;BME280;477;51.436;7.292;2023-11-21T09:33:46;59986.63;;;-146.42;100.00
977;BME280;477;51.436;7.292;2023-11-21T09:36:15;59986.63;;;-146.42;100.00
977;BME280;477;51.436;7.292;2023-11-21T09:38:44;59986.63;;;-146.42;100.00
977;BME280;477;51.436;7.292;2023-11-21T09:41:21;59986.63;;;-146.42;100.00
977;BME280;477;51.436;7.292;2023-11-21T09:43:54;59986.63;;;-146.42;100.00
977;BME280;477;51.436;7.292;2023-11-21T09:46:28;59986.63;;;-146.42;100.00
977;BME280;477;51.436;7.292;2023-11-21T09:49:02;59986.63;;;-146.42;100.00
977;BME280;477;51.436;7.292;2023-11-21T09:51:36;59986.63;;;-146.42;100.00
977;BME280;477;51.436;7.292;2023-11-21T09:54:09;59986.63;;;-146.42;100.00
977;BME280;477;51.436;7.292;2023-11-21T09:56:38;59986.63;;;-146.42;100.00
977;BME280;477;51.436;7.292;2023-11-21T09:59:08;59986.63;;;-146.42;100.00
977;BME280;477;51.436;7.292;2023-11-21T10:01:43;59986.63;;;-146.42;100.00
977;BME280;477;51.436;7.292;2023-11-21T10:04:13;59986.63;;;-146.42;100.00
977;BME280;477;51.436;7.292;2023-11-21T10:06:44;59986.63;;;-146.42;100.00
977;BME280;477;51.436;7.292;2023-11-21T10:09:14;59986.63;;;-146.42;100.00
977;BME280;477;51.436;7.292;2023-11-21T10:11:44;59986.63;;;-146.42;100.00
977;BME280;477;51.436;7.292;2023-11-21T10:14:13;59986.63;;;-146.42;100.00
977;BME280;477;51.436;7.292;2023-11-21T10:16:46;59986.63;;;-146.42;100.00
977;BME280;477;51.436;7.292;2023-11-21T10:19:18;59986.63;;;-146.42;100.00
977;BME280;477;51.436;7.292;2023-11-21T10:21:48;59986.63;;;-146.42;100.00
977;BME280;477;51.436;7.292;2023-11-21T10:24:17;59986.63;;;-146.42;100.00
977;BME280;477;51.436;7.292;2023-11-21T10:26:45;59986.63;;;-146.42;100.00
977;BME280;477;51.436;7.292;2023-11-21T10:29:20;59986.63;;;-146.42;100.00
977;BME280;477;51.436;7.292;2023-11-21T10:31:51;59986.63;;;-146.42;100.00
977;BME280;477;51.436;7.292;2023-11-21T10:34:24;59986.63;;;-146.42;100.00
977;BME280;477;51.436;7.292;2023-11-21T10:36:55;59986.63;;;-146.42;100.00
977;BME280;477;51.436;7.292;2023-11-21T10:39:27;59986.63;;;-146.42;100.00
977;BME280;477;51.436;7.292;2023-11-21T10:41:59;59986.63;;;-146.42;100.00
977;BME280;477;51.436;7.292;2023-11-21T10:44:28;59986.63;;;-146.42;100.00
977;BME280;477;51.436;7.292;2023-11-21T10:46:56;59986.63;;;-146.42;100.00
977;BME280;477;51.436;7.292;2023-11-21T10:49:30;59986.63;;;-146.42;100.00
977;BME280;477;51.436;7.292;2023-11-21T10:51:59;59986.63;;;-146.42;100.00
977;BME280;477;51.436;7.292;2023-11-21T10:54:28;59986.63;;;-146.42;100.00
977;BME280;477;51.436;7.292;2023-11-21T10:56:59;59986.63;;;-146.42;100.00
977;BME280;477;51.436;7.292;2023-11-21T10:59:30;59986.63;;;-146.42;100.00
977;BME280;477;51.436;7.292;2023-11-21T11:02:03;59986.63;;;-146.42;100.00
977;BME280;477;51.436;7.292;2023-11-21T11:04:37;59986.63;;;-146.42;100.00
977;BME280;477;51.436;7.292;2023-11-21T11:07:08;59986.63;;;-146.42;100.00
977;BME280;477;51.436;7.292;2023-11-21T11:10:34;100375.50;;;8.37;100.00
977;BME280;477;51.436;7.292;2023-11-21T11:13:06;124932.72;;;8.37;100.00
977;BME280;477;51.436;7.292;2023-11-21T11:15:35;100375.50;;;8.37;100.00
977;BME280;477;51.436;7.292;2023-11-21T11:18:12;100375.50;;;8.37;100.00
977;BME280;477;51.436;7.292;2023-11-21T11:20:45;100375.91;;;8.37;100.00
977;BME280;477;51.436;7.292;2023-11-21T11:23:35;100375.50;;;8.37;100.00
977;BME280;477;51.436;7.292;2023-11-21T11:26:20;59986.63;;;-146.42;100.00
977;BME280;477;51.436;7.292;2023-11-21T11:29:03;59986.63;;;-146.42;100.00
977;BME280;477;51.436;7.292;2023-11-21T11:31:48;59986.63;;;8.37;100.00
977;BME280;477;51.436;7.292;2023-11-21T11:34:26;59986.63;;;-146.42;100.00
977;BME280;477;51.436;7.292;2023-11-21T11:37:11;59986.63;;;-146.42;100.00
977;BME280;477;51.436;7.292;2023-11-21T11:39:41;59986.63;;;-146.42;100.00
977;BME280;477;51.436;7.292;2023-11-21T11:42:13;59986.63;;;-146.42;100.00
977;BME280;477;51.436;7.292;2023-11-21T11:44:51;59986.63;;;-146.42;100.00
977;BME280;477;51.436;7.292;2023-11-21T11:47:25;59986.63;;;-146.42;100.00
977;BME280;477;51.436;7.292;2023-11-21T11:50:06;59986.63;;;-146.42;100.00
977;BME280;477;51.436;7.292;2023-11-21T11:52:45;59986.63;;;-146.42;100.00
977;BME280;477;51.436;7.292;2023-11-21T11:55:16;59986.63;;;-146.42;100.00
977;BME280;477;51.436;7.292;2023-11-21T11:57:48;59986.63;;;-146.42;100.00
977;BME280;477;51.436;7.292;2023-11-21T12:00:20;59986.63;;;-146.42;100.00
977;BME280;477;51.436;7.292;2023-11-21T12:02:55;59986.63;;;-146.42;100.00
977;BME280;477;51.436;7.292;2023-11-21T12:06:15;59986.63;;;-146.42;100.00
977;BME280;477;51.436;7.292;2023-11-21T12:09:49;59986.63;;;-146.42;100.00
977;BME280;477;51.436;7.292;2023-11-21T12:13:14;59986.63;;;-146.42;100.00
977;BME280;477;51.436;7.292;2023-11-21T12:16:42;59986.63;;;-146.42;100.00
977;BME280;477;51.436;7.292;2023-11-21T12:20:10;59986.63;;;-146.42;100.00
977;BME280;477;51.436;7.292;2023-11-21T12:23:41;59986.63;;;-146.42;100.00
977;BME280;477;51.436;7.292;2023-11-21T12:27:11;59986.63;;;-146.42;100.00
977;BME280;477;51.436;7.292;2023-11-21T12:30:40;59986.63;;;-146.42;100.00
977;BME280;477;51.436;7.292;2023-11-21T12:34:07;59986.63;;;-146.42;100.00
977;BME280;477;51.436;7.292;2023-11-21T12:37:37;59986.63;;;-146.42;100.00
977;BME280;477;51.436;7.292;2023-11-21T12:41:05;59986.63;;;-146.42;100.00
977;BME280;477;51.436;7.292;2023-11-21T12:44:34;59986.63;;;-146.42;100.00
977;BME280;477;51.436;7.292;2023-11-21T12:48:02;59986.63;;;-146.42;100.00
977;BME280;477;51.436;7.292;2023-11-21T12:51:34;59986.63;;;-146.42;100.00
977;BME280;477;51.436;7.292;2023-11-21T12:54:05;59986.63;;;-146.42;100.00
977;BME280;477;51.436;7.292;2023-11-21T12:56:38;59986.63;;;-146.42;100.00
977;BME280;477;51.436;7.292;2023-11-21T12:59:08;59986.63;;;-146.42;100.00
977;BME280;477;51.436;7.292;2023-11-21T13:01:43;59986.63;;;-146.42;100.00
977;BME280;477;51.436;7.292;2023-11-21T13:04:12;59986.63;;;-146.42;100.00
977;BME280;477;51.436;7.292;2023-11-21T13:06:40;59986.63;;;-146.42;100.00
977;BME280;477;51.436;7.292;2023-11-21T13:09:09;59986.63;;;-146.42;100.00
977;BME280;477;51.436;7.292;2023-11-21T13:11:50;59986.63;;;-146.42;100.00
977;BME280;477;51.436;7.292;2023-11-21T13:14:29;59986.63;;;-146.42;100.00
977;BME280;477;51.436;7.292;2023-11-21T13:16:59;59986.63;;;-146.42;100.00
977;BME280;477;51.436;7.292;2023-11-21T13:19:28;59986.63;;;-146.42;100.00
977;BME280;477;51.436;7.292;2023-11-21T13:21:57;59986.63;;;-146.42;100.00
977;BME280;477;51.436;7.292;2023-11-21T13:24:33;59986.63;;;-146.42;100.00
977;BME280;477;51.436;7.292;2023-11-21T13:27:02;59986.63;;;-146.42;100.00
977;BME280;477;51.436;7.292;2023-11-21T13:29:33;59986.63;;;-146.42;100.00
977;BME280;477;51.436;7.292;2023-11-21T13:32:04;59986.63;;;-146.42;100.00
977;BME280;477;51.436;7.292;2023-11-21T13:35:24;59986.63;;;-146.42;100.00
977;BME280;477;51.436;7.292;2023-11-21T13:38:25;59986.63;;;-146.42;100.00
977;BME280;477;51.436;7.292;2023-11-21T13:40:59;59986.63;;;-146.42;100.00
977;BME280;477;51.436;7.292;2023-11-21T13:43:27;59986.63;;;-146.42;100.00
977;BME280;477;51.436;7.292;2023-11-21T13:45:59;59986.63;;;-146.42;100.00
977;BME280;477;51.436;7.292;2023-11-21T13:48:31;59986.63;;;-146.42;100.00
977;BME280;477;51.436;7.292;2023-11-21T13:51:08;59986.63;;;-146.42;100.00
977;BME280;477;51.436;7.292;2023-11-21T13:53:47;59986.63;;;-146.42;100.00
977;BME280;477;51.436;7.292;2023-11-21T13:56:20;59986.63;;;-146.42;100.00
977;BME280;477;51.436;7.292;2023-11-21T13:58:52;59986.63;;;-146.42;100.00
977;BME280;477;51.436;7.292;2023-11-21T14:01:26;59986.63;;;-146.42;100.00
977;BME280;477;51.436;7.292;2023-11-21T14:04:12;59986.63;;;-146.42;100.00
977;BME280;477;51.436;7.292;2023-11-21T14:06:49;59986.63;;;-146.42;100.00
977;BME280;477;51.436;7.292;2023-11-21T14:09:23;59986.63;;;-146.42;100.00
977;BME280;477;51.436;7.292;2023-11-21T14:11:54;59986.63;;;-146.42;100.00
977;BME280;477;51.436;7.292;2023-11-21T14:14:26;59986.63;;;-146.42;100.00
977;BME280;477;51.436;7.292;2023-11-21T14:16:58;59986.63;;;-146.42;100.00
977;BME280;477;51.436;7.292;2023-11-21T14:19:27;59986.63;;;-146.42;100.00
977;BME280;477;51.436;7.292;2023-11-21T14:22:00;59986.63;;;-146.42;100.00
977;BME280;477;51.436;7.292;2023-11-21T14:24:31;59986.63;;;-146.42;100.00
977;BME280;477;51.436;7.292;2023-11-21T14:27:00;59986.63;;;-146.42;100.00
977;BME280;477;51.436;7.292;2023-11-21T14:29:29;59986.63;;;-146.42;100.00
977;BME280;477;51.436;7.292;2023-11-21T14:32:04;59986.63;;;-146.42;100.00
977;BME280;477;51.436;7.292;2023-11-21T14:34:33;59986.63;;;-146.42;100.00
977;BME280;477;51.436;7.292;2023-11-21T14:37:02;59986.63;;;-146.42;100.00
977;BME280;477;51.436;7.292;2023-11-21T14:39:31;59986.63;;;-146.42;100.00
977;BME280;477;51.436;7.292;2023-11-21T14:42:04;59986.63;;;-146.42;100.00
977;BME280;477;51.436;7.292;2023-11-21T14:44:35;59986.63;;;-146.42;100.00
977;BME280;477;51.436;7.292;2023-11-21T14:47:10;59986.63;;;-146.42;100.00
977;BME280;477;51.436;7.292;2023-11-21T14:49:43;59986.63;;;-146.42;100.00
977;BME280;477;51.436;7.292;2023-11-21T14:52:21;59986.63;;;-146.42;100.00
977;BME280;477;51.436;7.292;2023-11-21T14:55:01;59986.63;;;-146.42;100.00
977;BME280;477;51.436;7.292;2023-11-21T14:57:53;59986.63;;;-146.42;100.00
977;BME280;477;51.436;7.292;2023-11-21T15:00:21;59986.63;;;-146.42;100.00
977;BME280;477;51.436;7.292;2023-11-21T15:03:13;59986.63;;;-146.42;100.00
977;BME280;477;51.436;7.292;2023-11-21T15:06:05;59986.63;;;-146.42;100.00
977;BME280;477;51.436;7.292;2023-11-21T15:08:50;59986.63;;;-146.42;100.00
977;BME280;477;51.436;7.292;2023-11-21T15:11:26;59986.63;;;-146.42;100.00
977;BME280;477;51.436;7.292;2023-11-21T15:14:12;59986.63;;;-146.42;100.00
977;BME280;477;51.436;7.292;2023-11-21T15:17:09;59986.63;;;-146.42;100.00
977;BME280;477;51.436;7.292;2023-11-21T15:20:33;59986.63;;;-146.42;100.00
977;BME280;477;51.436;7.292;2023-11-21T15:23:02;59986.63;;;-146.42;100.00
977;BME280;477;51.436;7.292;2023-11-21T15:25:33;59986.63;;;-146.42;100.00
977;BME280;477;51.436;7.292;2023-11-21T15:28:11;59986.63;;;-146.42;100.00
977;BME280;477;51.436;7.292;2023-11-21T15:31:16;59986.63;;;-146.42;100.00
977;BME280;477;51.436;7.292;2023-11-21T15:34:42;59986.63;;;-146.42;100.00
977;BME280;477;51.436;7.292;2023-11-21T15:38:06;59986.63;;;-146.42;100.00
977;BME280;477;51.436;7.292;2023-11-21T15:41:32;59986.63;;;-146.42;100.00
977;BME280;477;51.436;7.292;2023-11-21T15:44:54;59986.63;;;-146.42;100.00
977;BME280;477;51.436;7.292;2023-11-21T15:48:20;59986.63;;;-146.42;100.00
977;BME280;477;51.436;7.292;2023-11-21T15:51:42;59986.63;;;-146.42;100.00
977;BME280;477;51.436;7.292;2023-11-21T15:54:57;59986.63;;;-146.42;100.00
977;BME280;477;51.436;7.292;2023-11-21T15:57:29;59986.63;;;-146.42;100.00
977;BME280;477;51.436;7.292;2023-11-21T15:59:58;101036.69;;;9.11;100.00
977;BME280;477;51.436;7.292;2023-11-21T16:02:28;101045.41;;;9.10;100.00
977;BME280;477;51.436;7.292;2023-11-21T16:04:58;101048.13;;;9.06;100.00
977;BME280;477;51.436;7.292;2023-11-21T16:07:28;101058.78;;;8.97;100.00
977;BME280;477;51.436;7.292;2023-11-21T16:09:57;101053.81;;;8.89;100.00
977;BME280;477;51.436;7.292;2023-11-21T16:12:26;101060.78;;;8.87;100.00
977;BME280;477;51.436;7.292;2023-11-21T16:14:54;101073.63;;;8.93;100.00
977;BME280;477;51.436;7.292;2023-11-21T16:17:24;59986.63;;;-146.42;100.00
977;BME280;477;51.436;7.292;2023-11-21T16:19:53;59986.63;;;-146.42;100.00
977;BME280;477;51.436;7.292;2023-11-21T16:22:24;59986.63;;;-146.42;100.00
977;BME280;477;51.436;7.292;2023-11-21T16:24:57;59986.63;;;-146.42;100.00
977;BME280;477;51.436;7.292;2023-11-21T16:27:25;59986.63;;;-146.42;100.00
977;BME280;477;51.436;7.292;2023-11-21T16:29:54;59986.63;;;-146.42;100.00
977;BME280;477;51.436;7.292;2023-11-21T16:32:22;59986.63;;;-146.42;100.00
977;BME280;477;51.436;7.292;2023-11-21T16:34:51;59986.63;;;-146.42;100.00
977;BME280;477;51.436;7.292;2023-11-21T16:37:20;59986.63;;;-146.42;100.00
977;BME280;477;51.436;7.292;2023-11-21T16:39:49;59986.63;;;-146.42;100.00
977;BME280;477;51.436;7.292;2023-11-21T16:42:20;59986.63;;;-146.42;100.00
977;BME280;477;51.436;7.292;2023-11-21T16:44:50;59986.63;;;-146.42;100.00
977;BME280;477;51.436;7.292;2023-11-21T16:47:20;59986.63;;;-146.42;100.00
977;BME280;477;51.436;7.292;2023-11-21T16:49:50;59986.63;;;-146.42;100.00
977;BME280;477;51.436;7.292;2023-11-21T16:52:21;59986.63;;;-146.42;100.00
977;BME280;477;51.436;7.292;2023-11-21T16:54:50;59986.63;;;-146.42;100.00
977;BME280;477;51.436;7.292;2023-11-21T16:57:20;59986.63;;;-146.42;100.00
977;BME280;477;51.436;7.292;2023-11-21T16:59:49;59986.63;;;-146.42;100.00
977;BME280;477;51.436;7.292;2023-11-21T17:02:18;59986.63;;;-146.42;100.00
977;BME280;477;51.436;7.292;2023-11-21T17:04:49;59986.63;;;-146.42;100.00
977;BME280;477;51.436;7.292;2023-11-21T17:07:18;59986.63;;;-146.42;100.00
977;BME280;477;51.436;7.292;2023-11-21T17:09:48;59986.63;;;-146.42;100.00
977;BME280;477;51.436;7.292;2023-11-21T17:12:16;59986.63;;;-146.42;100.00
977;BME280;477;51.436;7.292;2023-11-21T17:14:47;59986.63;;;-146.42;100.00
977;BME280;477;51.436;7.292;2023-11-21T17:17:17;59986.63;;;-146.42;100.00
977;BME280;477;51.436;7.292;2023-11-21T17:19:46;59986.63;;;-146.42;100.00
977;BME280;477;51.436;7.292;2023-11-21T17:22:15;59986.63;;;-146.42;100.00
977;BME280;477;51.436;7.292;2023-11-21T17:24:43;59986.63;;;-146.42;100.00
977;BME280;477;51.436;7.292;2023-11-21T17:27:12;59986.63;;;-146.42;100.00
977;BME280;477;51.436;7.292;2023-11-21T17:29:41;59986.63;;;-146.42;100.00
977;BME280;477;51.436;7.292;2023-11-21T17:32:12;59986.63;;;-146.42;100.00
977;BME280;477;51.436;7.292;2023-11-21T17:34:42;59986.63;;;-146.42;100.00
977;BME280;477;51.436;7.292;2023-11-21T17:37:11;59986.63;;;-146.42;100.00
977;BME280;477;51.436;7.292;2023-11-21T17:39:40;59986.63;;;-146.42;100.00
977;BME280;477;51.436;7.292;2023-11-21T17:42:09;59986.63;;;-146.42;100.00
977;BME280;477;51.436;7.292;2023-11-21T17:44:38;59986.63;;;-146.42;100.00
977;BME280;477;51.436;7.292;2023-11-21T17:47:07;101264.97;;;8.20;100.00
977;BME280;477;51.436;7.292;2023-11-21T17:49:39;101269.50;;;8.10;100.00
977;BME280;477;51.436;7.292;2023-11-21T17:52:08;59986.63;;;-146.42;100.00
977;BME280;477;51.436;7.292;2023-11-21T17:54:37;78055.81;;;8.16;100.00
977;BME280;477;51.436;7.292;2023-11-21T17:57:09;59986.63;;;-146.42;100.00
977;BME280;477;51.436;7.292;2023-11-21T17:59:38;59986.63;;;-146.42;100.00
977;BME280;477;51.436;7.292;2023-11-21T18:02:08;59986.63;;;-146.42;100.00
977;BME280;477;51.436;7.292;2023-11-21T18:04:39;59986.63;;;-146.42;100.00
977;BME280;477;51.436;7.292;2023-11-21T18:07:08;59986.63;;;-146.42;100.00
977;BME280;477;51.436;7.292;2023-11-21T18:09:37;59986.63;;;-146.42;100.00
977;BME280;477;51.436;7.292;2023-11-21T18:12:08;59986.63;;;-146.42;100.00
977;BME280;477;51.436;7.292;2023-11-21T18:14:36;59986.63;;;-146.42;100.00
977;BME280;477;51.436;7.292;2023-11-21T18:17:05;59986.63;;;-146.42;100.00
977;BME280;477;51.436;7.292;2023-11-21T18:19:35;59986.63;;;-146.42;100.00
977;BME280;477;51.436;7.292;2023-11-21T18:22:06;59986.63;;;-146.42;100.00
977;BME280;477;51.436;7.292;2023-11-21T18:24:35;59986.63;;;-146.42;100.00
977;BME280;477;51.436;7.292;2023-11-21T18:27:06;59986.63;;;-146.42;100.00
977;BME280;477;51.436;7.292;2023-11-21T18:29:34;59986.63;;;-146.42;100.00
977;BME280;477;51.436;7.292;2023-11-21T18:32:05;59986.63;;;-146.42;100.00
977;BME280;477;51.436;7.292;2023-11-21T18:34:41;59986.63;;;-146.42;100.00
977;BME280;477;51.436;7.292;2023-11-21T18:37:13;59986.63;;;-146.42;100.00
977;BME280;477;51.436;7.292;2023-11-21T18:39:44;59986.63;;;-146.42;100.00
977;BME280;477;51.436;7.292;2023-11-21T18:42:16;59986.63;;;-146.42;100.00
977;BME280;477;51.436;7.292;2023-11-21T18:44:46;59986.63;;;-146.42;100.00
977;BME280;477;51.436;7.292;2023-11-21T18:47:25;59986.63;;;-146.42;100.00
977;BME280;477;51.436;7.292;2023-11-21T18:49:55;59986.63;;;-146.42;100.00
977;BME280;477;51.436;7.292;2023-11-21T18:52:32;59986.63;;;-146.42;100.00
977;BME280;477;51.436;7.292;2023-11-21T18:55:01;59986.63;;;-146.42;100.00
977;BME280;477;51.436;7.292;2023-11-21T18:57:30;59986.63;;;-146.42;100.00
977;BME280;477;51.436;7.292;2023-11-21T19:00:00;59986.63;;;-146.42;100.00
977;BME280;477;51.436;7.292;2023-11-21T19:02:31;59986.63;;;-146.42;100.00
977;BME280;477;51.436;7.292;2023-11-21T19:05:00;59986.63;;;-146.42;100.00
977;BME280;477;51.436;7.292;2023-11-21T19:07:34;59986.63;;;-146.42;100.00
977;BME280;477;51.436;7.292;2023-11-21T19:10:04;59986.63;;;-146.42;100.00
977;BME280;477;51.436;7.292;2023-11-21T19:12:37;59986.63;;;-146.42;100.00
977;BME280;477;51.436;7.292;2023-11-21T19:15:07;59986.63;;;-146.42;100.00
977;BME280;477;51.436;7.292;2023-11-21T19:17:36;59986.63;;;-146.42;100.00
977;BME280;477;51.436;7.292;2023-11-21T19:20:08;59986.63;;;-146.42;100.00
977;BME280;477;51.436;7.292;2023-11-21T19:22:38;59986.63;;;-146.42;100.00
977;BME280;477;51.436;7.292;2023-11-21T19:25:09;59986.63;;;-146.42;100.00
977;BME280;477;51.436;7.292;2023-11-21T19:27:41;59986.63;;;-146.42;100.00
977;BME280;477;51.436;7.292;2023-11-21T19:30:12;59986.63;;;-146.42;100.00
977;BME280;477;51.436;7.292;2023-11-21T19:32:41;59986.63;;;-146.42;100.00
977;BME280;477;51.436;7.292;2023-11-21T19:35:11;59986.63;;;-146.42;100.00
977;BME280;477;51.436;7.292;2023-11-21T19:37:42;59986.63;;;-146.42;100.00
977;BME280;477;51.436;7.292;2023-11-21T19:40:12;59986.63;;;-146.42;100.00
977;BME280;477;51.436;7.292;2023-11-21T19:42:41;59986.63;;;-146.42;100.00
977;BME280;477;51.436;7.292;2023-11-21T19:45:13;59986.63;;;-146.42;100.00
977;BME280;477;51.436;7.292;2023-11-21T19:47:42;59986.63;;;-146.42;100.00
977;BME280;477;51.436;7.292;2023-11-21T19:50:11;59986.63;;;-146.42;100.00
977;BME280;477;51.436;7.292;2023-11-21T19:52:41;59986.63;;;-146.42;100.00
977;BME280;477;51.436;7.292;2023-11-21T19:55:10;59986.63;;;-146.42;100.00
977;BME280;477;51.436;7.292;2023-11-21T19:57:40;59986.63;;;-146.42;100.00
977;BME280;477;51.436;7.292;2023-11-21T20:00:11;59986.63;;;-146.42;100.00
977;BME280;477;51.436;7.292;2023-11-21T20:02:42;59986.63;;;-146.42;100.00
977;BME280;477;51.436;7.292;2023-11-21T20:05:11;59986.63;;;-146.42;100.00
977;BME280;477;51.436;7.292;2023-11-21T20:07:44;59986.63;;;-146.42;100.00
977;BME280;477;51.436;7.292;2023-11-21T20:10:13;59986.63;;;-146.42;100.00
977;BME280;477;51.436;7.292;2023-11-21T20:12:44;59986.63;;;-146.42;100.00
977;BME280;477;51.436;7.292;2023-11-21T20:15:21;59986.63;;;-146.42;100.00
977;BME280;477;51.436;7.292;2023-11-21T20:17:50;59986.63;;;-146.42;100.00
977;BME280;477;51.436;7.292;2023-11-21T20:20:19;59986.63;;;-146.42;100.00
977;BME280;477;51.436;7.292;2023-11-21T20:22:49;59986.63;;;-146.42;100.00
977;BME280;477;51.436;7.292;2023-11-21T20:25:19;59986.63;;;-146.42;100.00
977;BME280;477;51.436;7.292;2023-11-21T20:27:48;59986.63;;;-146.42;100.00
977;BME280;477;51.436;7.292;2023-11-21T20:30:16;59986.63;;;-146.42;100.00
977;BME280;477;51.436;7.292;2023-11-21T20:32:47;59986.63;;;-146.42;100.00
977;BME280;477;51.436;7.292;2023-11-21T20:35:17;59986.63;;;-146.42;100.00
977;BME280;477;51.436;7.292;2023-11-21T20:37:49;59986.63;;;-146.42;100.00
977;BME280;477;51.436;7.292;2023-11-21T20:40:18;59986.63;;;-146.42;100.00
977;BME280;477;51.436;7.292;2023-11-21T20:42:51;59986.63;;;-146.42;100.00
977;BME280;477;51.436;7.292;2023-11-21T20:45:21;59986.63;;;-146.42;100.00
977;BME280;477;51.436;7.292;2023-11-21T20:47:50;59986.63;;;-146.42;100.00
977;BME280;477;51.436;7.292;2023-11-21T20:50:20;59986.63;;;-146.42;100.00
977;BME280;477;51.436;7.292;2023-11-21T20:52:52;59986.63;;;-146.42;100.00
977;BME280;477;51.436;7.292;2023-11-21T20:55:23;59986.63;;;-146.42;100.00
977;BME280;477;51.436;7.292;2023-11-21T20:57:55;59986.63;;;-146.42;100.00
977;BME280;477;51.436;7.292;2023-11-21T21:00:26;59986.63;;;-146.42;100.00
977;BME280;477;51.436;7.292;2023-11-21T21:02:55;59986.63;;;-146.42;100.00
977;BME280;477;51.436;7.292;2023-11-21T21:05:24;59986.63;;;-146.42;100.00
977;BME280;477;51.436;7.292;2023-11-21T21:07:59;59986.63;;;-146.42;100.00
977;BME280;477;51.436;7.292;2023-11-21T21:10:28;59986.63;;;-146.42;100.00
977;BME280;477;51.436;7.292;2023-11-21T21:12:57;59986.63;;;-146.42;100.00
977;BME280;477;51.436;7.292;2023-11-21T21:15:26;59986.63;;;-146.42;100.00
977;BME280;477;51.436;7.292;2023-11-21T21:18:01;59986.63;;;-146.42;100.00
977;BME280;477;51.436;7.292;2023-11-21T21:20:36;59986.63;;;-146.42;100.00
977;BME280;477;51.436;7.292;2023-11-21T21:23:06;59986.63;;;-146.42;100.00
977;BME280;477;51.436;7.292;2023-11-21T21:25:35;59986.63;;;-146.42;100.00
977;BME280;477;51.436;7.292;2023-11-21T21:28:05;59986.63;;;-146.42;100.00
977;BME280;477;51.436;7.292;2023-11-21T21:30:35;59986.63;;;-146.42;100.00
977;BME280;477;51.436;7.292;2023-11-21T21:33:04;59986.63;;;-146.42;100.00
977;BME280;477;51.436;7.292;2023-11-21T21:35:34;59986.63;;;-146.42;100.00
977;BME280;477;51.436;7.292;2023-11-21T21:38:03;59986.63;;;-146.42;100.00
977;BME280;477;51.436;7.292;2023-11-21T21:40:34;59986.63;;;-146.42;100.00
977;BME280;477;51.436;7.292;2023-11-21T21:43:03;59986.63;;;-146.42;100.00
977;BME280;477;51.436;7.292;2023-11-21T21:45:32;59986.63;;;-146.42;100.00
977;BME280;477;51.436;7.292;2023-11-21T21:48:02;59986.63;;;-146.42;100.00
977;BME280;477;51.436;7.292;2023-11-21T21:50:32;59986.63;;;-146.42;100.00
977;BME280;477;51.436;7.292;2023-11-21T21:53:01;59986.63;;;-146.42;100.00
977;BME280;477;51.436;7.292;2023-11-21T21:55:30;59986.63;;;-146.42;100.00
977;BME280;477;51.436;7.292;2023-11-21T21:58:00;59986.63;;;-146.42;100.00
977;BME280;477;51.436;7.292;2023-11-21T22:00:30;59986.63;;;-146.42;100.00
977;BME280;477;51.436;7.292;2023-11-21T22:03:00;59986.63;;;-146.42;100.00
977;BME280;477;51.436;7.292;2023-11-21T22:05:32;59986.63;;;-146.42;100.00
977;BME280;477;51.436;7.292;2023-11-21T22:08:00;59986.63;;;-146.42;100.00
977;BME280;477;51.436;7.292;2023-11-21T22:10:30;59986.63;;;-146.42;100.00
977;BME280;477;51.436;7.292;2023-11-21T22:13:01;59986.63;;;-146.42;100.00
977;BME280;477;51.436;7.292;2023-11-21T22:15:30;59986.63;;;-146.42;100.00
977;BME280;477;51.436;7.292;2023-11-21T22:17:58;59986.63;;;-146.42;100.00
977;BME280;477;51.436;7.292;2023-11-21T22:20:27;59986.63;;;-146.42;100.00
977;BME280;477;51.436;7.292;2023-11-21T22:22:57;59986.63;;;-146.42;100.00